createdAt,value
2019-03-25T00:00:58.533Z,73.40
2019-03-25T00:03:28.369Z,73.60
2019-03-25T00:05:58.166Z,73.90
2019-03-25T00:08:27.939Z,74.20
2019-03-25T00:10:58.592Z,74.50
2019-03-25T00:13:28.367Z,74.60
2019-03-25T00:15:58.188Z,74.70
2019-03-25T00:18:27.971Z,74.60
2019-03-25T00:20:57.778Z,74.40
2019-03-25T00:23:27.571Z,74.40
2019-03-25T00:25:57.435Z,74.60
2019-03-25T00:28:28.301Z,74.50
2019-03-25T00:30:58.095Z,74.30
2019-03-25T00:33:27.884Z,74.00
2019-03-25T00:35:57.658Z,74.10
2019-03-25T00:38:28.520Z,74.80
2019-03-25T00:40:58.309Z,74.10
2019-03-25T00:43:28.117Z,73.90
2019-03-25T00:45:57.866Z,73.90
2019-03-25T00:48:27.656Z,73.70
2019-03-25T00:50:57.431Z,73.60
2019-03-25T00:53:57.479Z,73.60
2019-03-25T00:56:27.263Z,73.60
2019-03-25T00:58:57.103Z,73.70
2019-03-25T01:01:26.913Z,73.70
2019-03-25T01:03:56.701Z,73.90
2019-03-25T01:06:26.552Z,74.00
2019-03-25T01:08:56.347Z,74.00
2019-03-25T01:11:27.267Z,74.00
2019-03-25T01:13:57.139Z,74.10
2019-03-25T01:17:22.559Z,74.20
2019-03-25T01:20:10.229Z,74.20
2019-03-25T01:22:40.064Z,74.40
2019-03-25T01:25:09.992Z,74.70
2019-03-25T01:27:39.788Z,75.00
2019-03-25T01:30:11.111Z,75.10
2019-03-25T01:32:40.895Z,75.30
2019-03-25T01:35:10.736Z,75.20
2019-03-25T01:37:40.523Z,75.00
2019-03-25T01:40:10.676Z,74.90
2019-03-25T01:42:40.466Z,74.80
2019-03-25T01:45:10.307Z,74.70
2019-03-25T01:47:40.096Z,74.50
2019-03-25T01:50:09.939Z,74.50
2019-03-25T01:52:39.727Z,74.30
2019-03-25T01:55:13.725Z,74.40
2019-03-25T01:57:41.063Z,74.00
2019-03-25T02:00:11.494Z,73.80
2019-03-25T02:02:41.270Z,73.80
2019-03-25T02:05:11.043Z,73.90
2019-03-25T02:07:40.841Z,73.90
2019-03-25T02:10:11.043Z,73.90
2019-03-25T02:12:41.917Z,74.00
2019-03-25T02:15:12.023Z,73.90
2019-03-25T02:17:41.815Z,73.90
2019-03-25T02:20:11.824Z,73.90
2019-03-25T02:22:41.717Z,73.50
2019-03-25T02:25:11.651Z,73.20
2019-03-25T02:27:41.427Z,73.30
2019-03-25T02:30:11.649Z,73.30
2019-03-25T02:32:41.433Z,73.00
2019-03-25T02:35:11.354Z,72.80
2019-03-25T02:37:41.129Z,72.80
2019-03-25T02:40:11.057Z,72.70
2019-03-25T02:42:40.898Z,72.50
2019-03-25T02:45:11.040Z,72.30
2019-03-25T02:47:40.780Z,72.30
2019-03-25T02:50:10.911Z,72.20
2019-03-25T02:52:40.697Z,72.40
2019-03-25T02:55:10.632Z,72.50
2019-03-25T02:57:40.403Z,72.20
2019-03-25T03:00:11.296Z,72.30
2019-03-25T03:02:41.072Z,72.30
2019-03-25T03:05:11.000Z,72.40
2019-03-25T03:07:40.793Z,72.50
2019-03-25T03:10:11.021Z,72.70
2019-03-25T03:12:40.810Z,73.30
2019-03-25T03:15:10.933Z,73.30
2019-03-25T03:17:40.715Z,73.30
2019-03-25T03:20:10.643Z,73.30
2019-03-25T03:22:40.425Z,73.40
2019-03-25T03:25:10.344Z,73.70
2019-03-25T03:27:40.133Z,74.10
2019-03-25T03:30:23.333Z,74.30
2019-03-25T03:32:53.123Z,74.40
2019-03-25T03:35:22.898Z,74.50
2019-03-25T03:37:52.697Z,74.80
2019-03-25T03:40:22.473Z,75.10
2019-03-25T03:42:52.426Z,75.20
2019-03-25T03:45:22.196Z,75.40
2019-03-25T03:47:52.004Z,75.60
2019-03-25T03:50:26.630Z,76.00
2019-03-25T03:52:57.093Z,76.10
2019-03-25T03:55:26.945Z,76.40
2019-03-25T03:57:57.245Z,76.50
2019-03-25T04:00:31.646Z,76.90
2019-03-25T04:03:01.428Z,77.10
2019-03-25T04:05:31.268Z,77.80
2019-03-25T04:08:01.062Z,78.10
2019-03-25T04:10:30.829Z,78.50
2019-03-25T04:13:19.964Z,78.80
2019-03-25T04:15:49.808Z,78.80
2019-03-25T04:18:19.622Z,79.30
2019-03-25T04:20:49.412Z,79.60
2019-03-25T04:23:19.184Z,79.70
2019-03-25T04:25:48.995Z,79.80
2019-03-25T04:28:18.772Z,79.90
2019-03-25T04:30:48.561Z,79.80
2019-03-25T04:33:18.337Z,79.70
2019-03-25T04:35:48.139Z,79.80
2019-03-25T04:38:17.921Z,79.90
2019-03-25T04:40:47.699Z,79.90
2019-03-25T04:43:17.472Z,80.00
2019-03-25T04:45:47.263Z,80.20
2019-03-25T04:48:17.046Z,80.20
2019-03-25T04:50:46.838Z,80.50
2019-03-25T04:53:16.612Z,80.50
2019-03-25T04:55:46.425Z,80.40
2019-03-25T04:58:16.206Z,80.30
2019-03-25T05:00:46.062Z,80.60
2019-03-25T05:03:15.842Z,81.40
2019-03-25T05:05:45.646Z,82.40
2019-03-25T05:08:15.431Z,83.60
2019-03-25T05:10:45.235Z,84.30
2019-03-25T05:13:15.010Z,85.10
2019-03-25T05:15:44.798Z,85.10
2019-03-25T05:18:14.582Z,85.00
2019-03-25T05:20:44.362Z,84.80
2019-03-25T05:23:14.162Z,85.60
2019-03-25T05:25:43.929Z,86.40
2019-03-25T05:28:13.718Z,86.40
2019-03-25T05:30:43.491Z,87.20
2019-03-25T05:33:13.290Z,87.30
2019-03-25T05:35:43.066Z,88.10
2019-03-25T05:38:12.860Z,88.60
2019-03-25T05:40:42.631Z,88.40
2019-03-25T05:43:12.423Z,88.10
2019-03-25T05:45:43.259Z,88.00
2019-03-25T05:48:13.042Z,88.10
2019-03-25T05:50:42.807Z,88.80
2019-03-25T05:53:12.603Z,88.70
2019-03-25T05:55:42.393Z,88.70
2019-03-25T05:58:12.169Z,90.10
2019-03-25T06:00:42.019Z,89.90
2019-03-25T06:03:11.795Z,89.70
2019-03-25T06:05:41.575Z,89.60
2019-03-25T06:08:11.351Z,89.20
2019-03-25T06:10:41.131Z,88.60
2019-03-25T06:13:10.903Z,88.10
2019-03-25T06:15:40.699Z,88.10
2019-03-25T06:18:10.467Z,88.60
2019-03-25T06:20:40.260Z,87.90
2019-03-25T06:23:10.047Z,87.80
2019-03-25T06:25:39.872Z,87.60
2019-03-25T06:28:09.659Z,87.50
2019-03-25T06:30:39.423Z,87.30
2019-03-25T06:33:12.706Z,89.60
2019-03-25T06:35:40.689Z,87.70
2019-03-25T06:38:10.475Z,87.40
2019-03-25T06:40:40.243Z,87.20
2019-03-25T06:43:10.027Z,87.10
2019-03-25T06:45:39.816Z,86.50
2019-03-25T06:48:09.591Z,85.50
2019-03-25T06:50:39.360Z,84.10
2019-03-25T06:53:09.160Z,84.50
2019-03-25T06:55:38.927Z,84.90
2019-03-25T06:58:08.715Z,84.80
2019-03-25T07:00:38.486Z,84.20
2019-03-25T07:03:08.339Z,84.10
2019-03-25T07:05:38.127Z,83.70
2019-03-25T07:08:07.910Z,83.80
2019-03-25T07:10:38.042Z,83.00
2019-03-25T07:13:07.900Z,83.70
2019-03-25T07:15:44.315Z,83.10
2019-03-25T07:18:14.326Z,82.90
2019-03-25T07:20:44.118Z,82.70
2019-03-25T07:23:13.899Z,82.80
2019-03-25T07:25:43.734Z,81.70
2019-03-25T07:28:13.520Z,80.90
2019-03-25T07:30:43.307Z,79.90
2019-03-25T07:33:13.074Z,80.10
2019-03-25T07:35:42.869Z,80.20
2019-03-25T07:38:12.637Z,80.10
2019-03-25T07:40:42.419Z,79.30
2019-03-25T07:43:12.193Z,79.40
2019-03-25T07:45:42.008Z,79.30
2019-03-25T07:48:11.780Z,79.00
2019-03-25T07:50:41.576Z,78.90
2019-03-25T07:53:11.350Z,79.00
2019-03-25T07:55:41.136Z,78.80
2019-03-25T07:58:10.937Z,78.60
2019-03-25T08:00:40.707Z,78.20
2019-03-25T08:03:10.488Z,77.60
2019-03-25T08:05:40.267Z,77.70
2019-03-25T08:08:10.129Z,77.70
2019-03-25T08:10:39.912Z,78.00
2019-03-25T08:13:09.716Z,77.30
2019-03-25T08:15:39.645Z,77.70
2019-03-25T08:18:09.431Z,78.00
2019-03-25T08:20:39.211Z,77.00
2019-03-25T08:23:09.002Z,77.40
2019-03-25T08:25:38.779Z,77.70
2019-03-25T08:28:08.567Z,77.30
2019-03-25T08:30:38.406Z,76.40
2019-03-25T08:33:08.197Z,74.40
2019-03-25T08:35:38.039Z,73.70
2019-03-25T08:38:07.830Z,73.10
2019-03-25T08:40:37.609Z,73.50
2019-03-25T08:43:07.422Z,73.90
2019-03-25T08:45:37.203Z,72.60
2019-03-25T08:48:07.011Z,71.50
2019-03-25T08:50:36.799Z,70.20
2019-03-25T08:53:06.710Z,70.10
2019-03-25T08:55:36.514Z,70.00
2019-03-25T08:58:11.921Z,70.90
2019-03-25T09:00:37.943Z,70.90
2019-03-25T09:03:07.726Z,71.60
2019-03-25T09:05:37.512Z,71.00
2019-03-25T09:08:07.287Z,72.50
2019-03-25T09:10:37.127Z,72.90
2019-03-25T09:13:06.903Z,73.80
2019-03-25T09:15:36.699Z,73.90
2019-03-25T09:18:06.547Z,73.60
2019-03-25T09:20:36.356Z,73.70
2019-03-25T09:23:06.191Z,73.40
2019-03-25T09:25:36.329Z,73.70
2019-03-25T09:28:06.187Z,74.20
2019-03-25T09:30:54.132Z,73.70
2019-03-25T09:33:23.975Z,72.50
2019-03-25T09:35:53.843Z,69.20
2019-03-25T09:38:23.623Z,67.90
2019-03-25T09:40:53.409Z,68.30
2019-03-25T09:43:23.202Z,68.50
2019-03-25T09:45:52.971Z,68.80
2019-03-25T09:48:22.751Z,66.60
2019-03-25T09:50:52.519Z,66.10
2019-03-25T09:53:22.308Z,66.60
2019-03-25T09:55:52.082Z,66.70
2019-03-25T09:58:21.871Z,64.80
2019-03-25T10:00:52.260Z,64.10
2019-03-25T10:03:23.105Z,64.80
2019-03-25T10:05:52.951Z,63.90
2019-03-25T10:08:22.747Z,63.70
2019-03-25T10:10:52.514Z,63.90
2019-03-25T10:13:22.298Z,63.30
2019-03-25T10:15:52.072Z,63.90
2019-03-25T10:18:21.854Z,63.20
2019-03-25T10:20:51.641Z,63.80
2019-03-25T10:23:21.444Z,64.00
2019-03-25T10:25:51.336Z,66.00
2019-03-25T10:28:21.163Z,63.30
2019-03-25T10:30:50.958Z,62.20
2019-03-25T10:33:20.813Z,62.00
2019-03-25T10:35:50.681Z,64.30
2019-03-25T10:38:20.470Z,69.10
2019-03-25T10:40:50.336Z,70.90
2019-03-25T10:43:20.138Z,70.60
2019-03-25T10:45:49.950Z,67.00
2019-03-25T10:48:19.734Z,69.40
2019-03-25T10:50:49.536Z,71.60
2019-03-25T10:53:19.320Z,68.70
2019-03-25T10:55:49.122Z,68.50
2019-03-25T10:58:18.908Z,68.60
2019-03-25T11:00:48.720Z,69.40
2019-03-25T11:03:18.520Z,70.70
2019-03-25T11:05:48.568Z,73.60
2019-03-25T11:08:18.362Z,75.30
2019-03-25T11:10:48.140Z,75.40
2019-03-25T11:13:18.657Z,73.50
2019-03-25T11:15:48.486Z,71.60
2019-03-25T11:18:18.278Z,71.50
2019-03-25T11:20:48.101Z,71.40
2019-03-25T11:23:17.875Z,67.70
2019-03-25T11:25:47.683Z,68.20
2019-03-25T11:28:17.484Z,65.60
2019-03-25T11:30:52.918Z,64.70
2019-03-25T11:33:23.940Z,64.50
2019-03-25T11:35:53.890Z,65.70
2019-03-25T11:38:24.783Z,63.80
2019-03-25T11:40:54.660Z,64.00
2019-03-25T11:43:24.428Z,63.00
2019-03-25T11:45:54.312Z,63.50
2019-03-25T11:48:24.094Z,62.10
2019-03-25T11:50:53.900Z,61.40
2019-03-25T11:53:23.688Z,60.10
2019-03-25T11:55:53.555Z,60.20
2019-03-25T11:58:23.344Z,62.10
2019-03-25T12:00:53.141Z,64.60
2019-03-25T12:03:22.934Z,66.70
2019-03-25T12:05:52.752Z,68.70
2019-03-25T12:08:22.644Z,68.00
2019-03-25T12:10:53.410Z,70.80
2019-03-25T12:13:23.196Z,72.50
2019-03-25T12:15:53.005Z,73.50
2019-03-25T12:18:22.873Z,73.60
2019-03-25T12:20:52.668Z,72.10
2019-03-25T12:23:26.552Z,68.90
2019-03-25T12:25:54.054Z,65.50
2019-03-25T12:28:23.799Z,65.30
2019-03-25T12:30:53.597Z,63.80
2019-03-25T12:33:23.550Z,61.20
2019-03-25T12:35:53.327Z,61.30
2019-03-25T12:38:23.116Z,62.40
2019-03-25T12:40:52.910Z,60.00
2019-03-25T12:43:22.699Z,57.40
2019-03-25T12:45:52.482Z,57.20
2019-03-25T12:48:22.340Z,57.00
2019-03-25T12:50:52.107Z,56.00
2019-03-25T12:53:21.907Z,56.50
2019-03-25T12:55:51.679Z,58.00
2019-03-25T12:58:21.459Z,57.10
2019-03-25T13:00:51.247Z,58.70
2019-03-25T13:03:21.038Z,57.50
2019-03-25T13:05:50.818Z,65.50
2019-03-25T13:08:20.612Z,71.40
2019-03-25T13:10:50.395Z,74.70
2019-03-25T13:13:20.180Z,74.90
2019-03-25T13:15:50.023Z,76.60
2019-03-25T13:18:19.803Z,75.10
2019-03-25T13:20:50.664Z,74.70
2019-03-25T13:23:21.517Z,73.60
2019-03-25T13:25:51.300Z,75.50
2019-03-25T13:28:22.156Z,74.10
2019-03-25T13:30:51.942Z,74.10
2019-03-25T13:33:21.721Z,69.70
2019-03-25T13:35:51.516Z,70.30
2019-03-25T13:38:21.287Z,70.20
2019-03-25T13:40:51.077Z,66.10
2019-03-25T13:43:20.899Z,60.80
2019-03-25T13:45:50.699Z,54.10
2019-03-25T13:48:20.488Z,52.20
2019-03-25T13:50:50.268Z,52.60
2019-03-25T13:53:20.067Z,52.80
2019-03-25T13:55:49.844Z,50.60
2019-03-25T13:58:19.635Z,50.50
2019-03-25T14:00:49.416Z,48.70
2019-03-25T14:03:19.202Z,50.10
2019-03-25T14:05:48.987Z,52.30
2019-03-25T14:08:18.775Z,56.00
2019-03-25T14:10:48.559Z,58.60
2019-03-25T14:13:18.403Z,60.20
2019-03-25T14:15:48.219Z,60.80
2019-03-25T14:18:18.024Z,63.60
2019-03-25T14:20:47.865Z,66.20
2019-03-25T14:23:17.670Z,67.90
2019-03-25T14:25:47.457Z,68.50
2019-03-25T14:28:17.248Z,68.90
2019-03-25T14:30:47.039Z,72.30
2019-03-25T14:33:16.820Z,71.80
2019-03-25T14:35:46.608Z,73.20
2019-03-25T14:38:16.396Z,73.30
2019-03-25T14:40:46.191Z,67.30
2019-03-25T14:43:15.965Z,56.00
2019-03-25T14:45:45.843Z,48.00
2019-03-25T14:48:15.621Z,47.00
2019-03-25T14:50:45.407Z,51.20
2019-03-25T14:53:15.199Z,54.60
2019-03-25T14:55:45.050Z,60.80
2019-03-25T14:58:14.850Z,67.90
2019-03-25T15:00:44.623Z,72.40
2019-03-25T15:03:14.420Z,74.80
2019-03-25T15:05:44.193Z,78.30
2019-03-25T15:08:13.983Z,80.60
2019-03-25T15:10:53.257Z,80.10
2019-03-25T15:13:15.318Z,82.30
2019-03-25T15:15:45.086Z,84.20
2019-03-25T15:18:15.719Z,82.90
2019-03-25T15:20:45.933Z,80.20
2019-03-25T15:23:15.732Z,60.60
2019-03-25T15:25:45.506Z,49.60
2019-03-25T15:28:15.367Z,49.10
2019-03-25T15:30:45.153Z,56.30
2019-03-25T15:33:15.004Z,62.10
2019-03-25T15:35:44.799Z,67.40
2019-03-25T15:38:14.575Z,68.30
2019-03-25T15:40:44.539Z,69.20
2019-03-25T15:43:14.346Z,72.00
2019-03-25T15:45:44.269Z,72.10
2019-03-25T15:48:14.105Z,72.30
2019-03-25T15:50:43.907Z,69.70
2019-03-25T15:53:13.681Z,69.50
2019-03-25T15:55:43.548Z,67.10
2019-03-25T15:58:13.324Z,68.90
2019-03-25T16:00:48.004Z,68.50
2019-03-25T16:03:15.675Z,69.70
2019-03-25T16:05:45.475Z,69.00
2019-03-25T16:08:15.256Z,70.00
2019-03-25T16:10:45.058Z,71.40
2019-03-25T16:13:16.010Z,69.40
2019-03-25T16:15:45.878Z,70.40
2019-03-25T16:18:39.371Z,69.50
2019-03-25T16:21:09.298Z,71.00
2019-03-25T16:23:39.230Z,72.10
2019-03-25T16:26:09.178Z,73.00
2019-03-25T16:28:39.231Z,71.80
2019-03-25T16:31:09.025Z,73.10
2019-03-25T16:33:38.827Z,72.70
2019-03-25T16:36:08.675Z,73.00
2019-03-25T16:38:38.576Z,72.30
2019-03-25T16:41:08.416Z,73.40
2019-03-25T16:43:38.210Z,74.70
2019-03-25T16:46:08.002Z,76.00
2019-03-25T16:48:37.784Z,76.60
2019-03-25T16:51:07.552Z,77.50
2019-03-25T16:53:38.361Z,79.60
2019-03-25T16:56:08.150Z,78.90
2019-03-25T16:58:37.975Z,79.30
2019-03-25T17:01:10.339Z,78.90
2019-03-25T17:03:40.196Z,78.00
2019-03-25T17:06:09.985Z,79.00
2019-03-25T17:08:39.833Z,77.60
2019-03-25T17:11:09.727Z,77.80
2019-03-25T17:13:39.607Z,76.80
2019-03-25T17:16:09.481Z,76.10
2019-03-25T17:18:39.281Z,75.60
2019-03-25T17:21:09.086Z,77.00
2019-03-25T17:23:38.890Z,77.30
2019-03-25T17:26:08.768Z,77.00
2019-03-25T17:28:38.539Z,76.90
2019-03-25T17:31:08.326Z,76.80
2019-03-25T17:33:38.120Z,76.20
2019-03-25T17:36:07.900Z,77.30
2019-03-25T17:38:37.694Z,78.00
2019-03-25T17:41:07.477Z,78.10
2019-03-25T17:43:37.266Z,77.10
2019-03-25T17:46:19.190Z,77.90
2019-03-25T17:48:49.043Z,77.70
2019-03-25T17:51:18.900Z,76.80
2019-03-25T17:53:55.637Z,76.90
2019-03-25T17:56:28.340Z,76.90
2019-03-25T17:58:58.133Z,76.90
2019-03-25T18:01:32.603Z,76.30
2019-03-25T18:04:02.246Z,76.30
2019-03-25T18:06:32.083Z,76.20
2019-03-25T18:09:01.924Z,75.90
2019-03-25T18:11:34.152Z,76.10
2019-03-25T18:14:04.030Z,75.30
2019-03-25T18:16:33.886Z,75.10
2019-03-25T18:19:04.067Z,74.90
2019-03-25T18:21:33.940Z,73.90
2019-03-25T18:24:03.957Z,74.40
2019-03-25T18:26:33.732Z,74.50
2019-03-25T18:29:03.570Z,73.60
2019-03-25T18:31:42.906Z,72.60
2019-03-25T18:34:04.972Z,73.20
2019-03-25T18:36:34.766Z,73.10
2019-03-25T18:39:09.728Z,73.30
2019-03-25T18:41:39.700Z,72.70
2019-03-25T18:44:09.554Z,73.10
2019-03-25T18:46:39.394Z,73.30
2019-03-25T18:49:10.255Z,73.40
2019-03-25T18:51:40.057Z,73.50
2019-03-25T18:54:09.841Z,73.40
2019-03-25T18:56:39.640Z,73.40
2019-03-25T18:59:10.560Z,73.70
2019-03-25T19:01:40.456Z,73.90
2019-03-25T19:04:10.524Z,73.80
2019-03-25T19:06:41.773Z,74.20
2019-03-25T19:09:11.573Z,74.50
2019-03-25T19:11:41.358Z,74.70
2019-03-25T19:14:12.113Z,74.30
2019-03-25T19:16:41.894Z,74.60
2019-03-25T19:19:11.703Z,74.80
2019-03-25T19:21:41.490Z,74.40
2019-03-25T19:24:11.358Z,74.60
2019-03-25T19:26:41.201Z,74.70
2019-03-25T19:29:10.979Z,74.80
2019-03-25T19:31:40.788Z,75.20
2019-03-25T19:34:10.629Z,75.20
2019-03-25T19:36:40.415Z,74.90
2019-03-25T19:39:10.198Z,74.60
2019-03-25T19:41:40.009Z,74.50
2019-03-25T19:44:09.808Z,74.90
2019-03-25T19:46:39.778Z,74.60
2019-03-25T19:49:11.768Z,74.80
2019-03-25T19:51:44.696Z,75.00
2019-03-25T19:54:14.524Z,75.00
2019-03-25T19:56:45.349Z,74.90
2019-03-25T19:59:19.601Z,75.00
2019-03-25T20:01:49.571Z,75.10
2019-03-25T20:04:19.548Z,75.00
2019-03-25T20:06:49.591Z,74.80
2019-03-25T20:09:19.445Z,74.70
2019-03-25T20:11:49.377Z,74.90
2019-03-25T20:14:19.313Z,75.00
2019-03-25T20:16:49.196Z,74.90
2019-03-25T20:19:19.094Z,74.60
2019-03-25T20:21:48.920Z,74.80
2019-03-25T20:24:18.725Z,75.00
2019-03-25T20:26:48.676Z,75.30
2019-03-25T20:29:18.460Z,75.60
2019-03-25T20:31:48.256Z,75.60
2019-03-25T20:34:18.056Z,75.50
2019-03-25T20:36:48.816Z,75.90
2019-03-25T20:39:18.735Z,76.10
2019-03-25T20:41:48.613Z,76.10
2019-03-25T20:44:18.730Z,76.10
2019-03-25T20:46:50.173Z,76.00
2019-03-25T20:49:20.155Z,75.90
2019-03-25T20:51:50.010Z,75.90
2019-03-25T20:54:19.907Z,76.00
2019-03-25T20:56:50.937Z,76.10
2019-03-25T20:59:20.767Z,76.00
2019-03-25T21:01:50.544Z,76.20
2019-03-25T21:04:21.836Z,76.20
2019-03-25T21:06:54.498Z,76.20
2019-03-25T21:09:23.200Z,76.40
2019-03-25T21:11:54.707Z,76.70
2019-03-25T21:14:26.276Z,77.00
2019-03-25T21:16:56.124Z,77.00
2019-03-25T21:19:25.971Z,77.40
2019-03-25T21:21:55.834Z,77.30
2019-03-25T21:24:25.759Z,77.80
2019-03-25T21:26:55.671Z,78.00
2019-03-25T21:29:25.503Z,78.10
2019-03-25T21:31:56.981Z,78.10
2019-03-25T21:34:26.954Z,78.60
2019-03-25T21:36:56.887Z,77.70
2019-03-25T21:39:30.671Z,77.90
2019-03-25T21:42:00.440Z,78.00
2019-03-25T21:44:30.365Z,78.00
2019-03-25T21:47:01.829Z,78.00
2019-03-25T21:49:31.798Z,78.10
2019-03-25T21:52:01.680Z,77.60
2019-03-25T21:54:31.526Z,77.30
2019-03-25T21:57:01.339Z,77.50
2019-03-25T21:59:31.297Z,77.60
2019-03-25T22:02:01.144Z,77.60
2019-03-25T22:04:31.132Z,77.60
2019-03-25T22:07:01.022Z,77.60
2019-03-25T22:09:32.636Z,77.70
2019-03-25T22:12:03.983Z,78.20
2019-03-25T22:14:33.833Z,78.20
2019-03-25T22:17:03.684Z,78.30
2019-03-25T22:19:34.028Z,78.10
2019-03-25T22:22:03.801Z,77.80
2019-03-25T22:24:33.596Z,78.20
2019-03-25T22:27:03.404Z,78.40
2019-03-25T22:29:33.226Z,78.50
2019-03-25T22:32:03.036Z,78.50
2019-03-25T22:34:32.848Z,78.60
2019-03-25T22:37:02.657Z,78.60
2019-03-25T22:39:32.456Z,79.10
2019-03-25T22:42:02.238Z,79.00
2019-03-25T22:44:32.045Z,78.80
2019-03-25T22:47:05.149Z,79.40
2019-03-25T22:49:33.388Z,79.60
2019-03-25T22:52:03.178Z,79.50
2019-03-25T22:54:35.063Z,79.50
2019-03-25T22:57:04.861Z,79.80
2019-03-25T22:59:34.637Z,79.80
2019-03-25T23:02:04.662Z,79.80
2019-03-25T23:04:34.457Z,79.90
2019-03-25T23:07:04.298Z,80.00
2019-03-25T23:09:34.080Z,79.50
2019-03-25T23:12:05.512Z,79.60
2019-03-25T23:14:35.306Z,79.70
2019-03-25T23:17:07.860Z,79.80
2019-03-25T23:19:38.737Z,79.90
2019-03-25T23:22:08.803Z,80.00
2019-03-25T23:24:38.662Z,79.70
2019-03-25T23:27:08.459Z,79.60
2019-03-25T23:29:38.253Z,79.40
2019-03-25T23:32:10.528Z,79.40
2019-03-25T23:34:40.395Z,79.60
2019-03-25T23:37:10.198Z,79.60
2019-03-25T23:39:41.546Z,79.90
2019-03-25T23:42:12.994Z,79.70
2019-03-25T23:44:42.838Z,79.80
2019-03-25T23:47:12.681Z,80.00
2019-03-25T23:49:42.467Z,80.00
2019-03-25T23:52:12.251Z,80.20
2019-03-25T23:54:42.070Z,80.30
2019-03-25T23:57:11.895Z,80.30
2019-03-25T23:59:41.706Z,80.40
